sensor_id;sensor_type;location;lat;lon;timestamp;pressure;altitude;pressure_sealevel;temperature;humidity
47738;BME280;33502;47.182;27.506;2023-11-22T00:00:01;99904.19;;;3.47;100.00
47738;BME280;33502;47.182;27.506;2023-11-22T00:02:27;99905.09;;;3.46;100.00
47738;BME280;33502;47.182;27.506;2023-11-22T00:04:54;99906.91;;;3.42;100.00
47738;BME280;33502;47.182;27.506;2023-11-22T00:07:20;99911.31;;;3.40;100.00
47738;BME280;33502;47.182;27.506;2023-11-22T00:09:47;99904.47;;;3.35;100.00
47738;BME280;33502;47.182;27.506;2023-11-22T00:12:12;99911.47;;;3.32;100.00
47738;BME280;33502;47.182;27.506;2023-11-22T00:14:38;99912.34;;;3.33;100.00
47738;BME280;33502;47.182;27.506;2023-11-22T00:17:04;99907.16;;;3.28;100.00
47738;BME280;33502;47.182;27.506;2023-11-22T00:19:30;99909.91;;;3.22;100.00
47738;BME280;33502;47.182;27.506;2023-11-22T00:21:56;99905.66;;;3.17;100.00
47738;BME280;33502;47.182;27.506;2023-11-22T00:24:21;99897.09;;;3.08;100.00
47738;BME280;33502;47.182;27.506;2023-11-22T00:26:47;99902.41;;;3.04;100.00
47738;BME280;33502;47.182;27.506;2023-11-22T00:29:13;99899.91;;;2.98;100.00
47738;BME280;33502;47.182;27.506;2023-11-22T00:31:38;99885.16;;;2.93;100.00
47738;BME280;33502;47.182;27.506;2023-11-22T00:34:05;99884.31;;;2.93;100.00
47738;BME280;33502;47.182;27.506;2023-11-22T00:36:32;99896.47;;;2.96;100.00
47738;BME280;33502;47.182;27.506;2023-11-22T00:38:57;99896.44;;;2.97;100.00
47738;BME280;33502;47.182;27.506;2023-11-22T00:41:23;99897.38;;;2.93;100.00
47738;BME280;33502;47.182;27.506;2023-11-22T00:43:48;99895.66;;;2.92;100.00
47738;BME280;33502;47.182;27.506;2023-11-22T00:46:14;99896.59;;;2.89;100.00
47738;BME280;33502;47.182;27.506;2023-11-22T00:48:40;99897.28;;;2.98;100.00
47738;BME280;33502;47.182;27.506;2023-11-22T00:51:06;99902.41;;;3.04;100.00
47738;BME280;33502;47.182;27.506;2023-11-22T00:53:34;99897.16;;;3.05;100.00
47738;BME280;33502;47.182;27.506;2023-11-22T00:56:03;99901.56;;;3.02;100.00
47738;BME280;33502;47.182;27.506;2023-11-22T00:58:29;99906.91;;;2.97;100.00
47738;BME280;33502;47.182;27.506;2023-11-22T01:00:55;99907.91;;;2.88;100.00
47738;BME280;33502;47.182;27.506;2023-11-22T01:03:21;99897.59;;;2.81;100.00
47738;BME280;33502;47.182;27.506;2023-11-22T01:05:46;99899.44;;;2.76;100.00
47738;BME280;33502;47.182;27.506;2023-11-22T01:08:12;99900.41;;;2.70;100.00
47738;BME280;33502;47.182;27.506;2023-11-22T01:10:39;99903.16;;;2.64;100.00
47738;BME280;33502;47.182;27.506;2023-11-22T01:13:04;99909.28;;;2.60;100.00
47738;BME280;33502;47.182;27.506;2023-11-22T01:15:30;99901.50;;;2.57;100.00
47738;BME280;33502;47.182;27.506;2023-11-22T01:17:56;99905.03;;;2.54;100.00
47738;BME280;33502;47.182;27.506;2023-11-22T01:20:22;99899.00;;;2.50;100.00
47738;BME280;33502;47.182;27.506;2023-11-22T01:22:48;99900.81;;;2.45;100.00
47738;BME280;33502;47.182;27.506;2023-11-22T01:25:14;99911.31;;;2.42;100.00
47738;BME280;33502;47.182;27.506;2023-11-22T01:27:40;99900.06;;;2.39;100.00
47738;BME280;33502;47.182;27.506;2023-11-22T01:30:06;99901.84;;;2.35;100.00
47738;BME280;33502;47.182;27.506;2023-11-22T01:32:34;99907.06;;;2.37;100.00
47738;BME280;33502;47.182;27.506;2023-11-22T01:35:00;99899.22;;;2.35;100.00
47738;BME280;33502;47.182;27.506;2023-11-22T01:37:26;99902.75;;;2.32;100.00
47738;BME280;33502;47.182;27.506;2023-11-22T01:39:52;99906.31;;;2.28;100.00
47738;BME280;33502;47.182;27.506;2023-11-22T01:42:20;99902.88;;;2.26;100.00
47738;BME280;33502;47.182;27.506;2023-11-22T01:44:46;99901.19;;;2.24;100.00
47738;BME280;33502;47.182;27.506;2023-11-22T01:47:13;99904.66;;;2.23;100.00
47738;BME280;33502;47.182;27.506;2023-11-22T01:49:39;99896.84;;;2.20;100.00
47738;BME280;33502;47.182;27.506;2023-11-22T01:52:05;99891.69;;;2.17;100.00
47738;BME280;33502;47.182;27.506;2023-11-22T01:54:31;99891.69;;;2.17;100.00
47738;BME280;33502;47.182;27.506;2023-11-22T01:56:57;99887.34;;;2.15;100.00
47738;BME280;33502;47.182;27.506;2023-11-22T01:59:24;99883.00;;;2.16;100.00
47738;BME280;33502;47.182;27.506;2023-11-22T02:01:51;99885.56;;;2.18;100.00
47738;BME280;33502;47.182;27.506;2023-11-22T02:04:18;99888.16;;;2.21;100.00
47738;BME280;33502;47.182;27.506;2023-11-22T02:06:44;99883.75;;;2.23;100.00
47738;BME280;33502;47.182;27.506;2023-11-22T02:09:09;99876.75;;;2.25;100.00
47738;BME280;33502;47.182;27.506;2023-11-22T02:11:39;99871.56;;;2.23;100.00
47738;BME280;33502;47.182;27.506;2023-11-22T02:14:07;99877.69;;;2.21;100.00
47738;BME280;33502;47.182;27.506;2023-11-22T02:16:34;99879.50;;;2.17;100.00
47738;BME280;33502;47.182;27.506;2023-11-22T02:19:00;99881.25;;;2.17;100.00
47738;BME280;33502;47.182;27.506;2023-11-22T02:21:25;99872.56;;;2.16;100.00
47738;BME280;33502;47.182;27.506;2023-11-22T02:23:51;99876.09;;;2.12;100.00
47738;BME280;33502;47.182;27.506;2023-11-22T02:26:17;99876.19;;;2.04;100.00
47738;BME280;33502;47.182;27.506;2023-11-22T02:28:45;99886.75;;;1.98;100.00
47738;BME280;33502;47.182;27.506;2023-11-22T02:31:13;99898.13;;;1.92;100.00
47738;BME280;33502;47.182;27.506;2023-11-22T02:33:39;99888.66;;;1.87;100.00
47738;BME280;33502;47.182;27.506;2023-11-22T02:36:05;99886.97;;;1.81;100.00
47738;BME280;33502;47.182;27.506;2023-11-22T02:38:33;99900.06;;;1.80;100.00
47738;BME280;33502;47.182;27.506;2023-11-22T02:41:01;99901.88;;;1.74;100.00
47738;BME280;33502;47.182;27.506;2023-11-22T02:43:27;99897.53;;;1.72;100.00
47738;BME280;33502;47.182;27.506;2023-11-22T02:45:52;99895.81;;;1.72;100.00
47738;BME280;33502;47.182;27.506;2023-11-22T02:48:18;99907.22;;;1.65;100.00
47738;BME280;33502;47.182;27.506;2023-11-22T02:50:44;99911.63;;;1.60;100.00
47738;BME280;33502;47.182;27.506;2023-11-22T02:53:10;99904.63;;;1.64;100.00
47738;BME280;33502;47.182;27.506;2023-11-22T02:55:35;99912.31;;;1.76;100.00
47738;BME280;33502;47.182;27.506;2023-11-22T02:58:01;99911.31;;;1.85;100.00
47738;BME280;33502;47.182;27.506;2023-11-22T03:00:27;99914.72;;;1.90;100.00
47738;BME280;33502;47.182;27.506;2023-11-22T03:02:54;99923.41;;;1.92;100.00
47738;BME280;33502;47.182;27.506;2023-11-22T03:05:21;99926.88;;;1.92;100.00
47738;BME280;33502;47.182;27.506;2023-11-22T03:07:47;99932.06;;;1.94;100.00
47738;BME280;33502;47.182;27.506;2023-11-22T03:10:13;99927.69;;;1.94;100.00
47738;BME280;33502;47.182;27.506;2023-11-22T03:12:38;99931.19;;;1.95;100.00
47738;BME280;33502;47.182;27.506;2023-11-22T03:15:04;99939.03;;;1.95;100.00
47738;BME280;33502;47.182;27.506;2023-11-22T03:17:31;99934.72;;;1.91;100.00
47738;BME280;33502;47.182;27.506;2023-11-22T03:19:58;99939.97;;;1.89;100.00
47738;BME280;33502;47.182;27.506;2023-11-22T03:22:24;99941.69;;;1.89;100.00
47738;BME280;33502;47.182;27.506;2023-11-22T03:24:50;99944.31;;;1.89;100.00
47738;BME280;33502;47.182;27.506;2023-11-22T03:27:15;99934.78;;;1.88;100.00
47738;BME280;33502;47.182;27.506;2023-11-22T03:29:41;99937.38;;;1.89;100.00
47738;BME280;33502;47.182;27.506;2023-11-22T03:32:06;99940.81;;;1.91;100.00
47738;BME280;33502;47.182;27.506;2023-11-22T03:34:32;99939.81;;;2.00;100.00
47738;BME280;33502;47.182;27.506;2023-11-22T03:36:58;99944.91;;;2.09;100.00
47738;BME280;33502;47.182;27.506;2023-11-22T03:39:24;99941.34;;;2.17;100.00
47738;BME280;33502;47.182;27.506;2023-11-22T03:41:50;99952.59;;;2.22;100.00
47738;BME280;33502;47.182;27.506;2023-11-22T03:44:16;99954.25;;;2.26;100.00
47738;BME280;33502;47.182;27.506;2023-11-22T03:46:42;99954.22;;;2.27;100.00
47738;BME280;33502;47.182;27.506;2023-11-22T03:49:07;99952.44;;;2.31;100.00
47738;BME280;33502;47.182;27.506;2023-11-22T03:51:33;99954.16;;;2.33;100.00
47738;BME280;33502;47.182;27.506;2023-11-22T03:53:59;99956.75;;;2.33;100.00
47738;BME280;33502;47.182;27.506;2023-11-22T03:56:25;99961.09;;;2.34;100.00
47738;BME280;33502;47.182;27.506;2023-11-22T03:58:51;99963.66;;;2.38;100.00
47738;BME280;33502;47.182;27.506;2023-11-22T04:01:16;99976.72;;;2.38;100.00
47738;BME280;33502;47.182;27.506;2023-11-22T04:03:44;99977.59;;;2.37;100.00
47738;BME280;33502;47.182;27.506;2023-11-22T04:06:09;99989.00;;;2.32;100.00
47738;BME280;33502;47.182;27.506;2023-11-22T04:08:35;99983.00;;;2.26;100.00
47738;BME280;33502;47.182;27.506;2023-11-22T04:11:01;99984.81;;;2.21;100.00
47738;BME280;33502;47.182;27.506;2023-11-22T04:13:27;99992.69;;;2.18;100.00
47738;BME280;33502;47.182;27.506;2023-11-22T04:15:53;100002.25;;;2.19;100.00
47738;BME280;33502;47.182;27.506;2023-11-22T04:18:18;100003.91;;;2.26;100.00
47738;BME280;33502;47.182;27.506;2023-11-22T04:20:44;100013.34;;;2.34;100.00
47738;BME280;33502;47.182;27.506;2023-11-22T04:23:10;100014.97;;;2.43;100.00
47738;BME280;33502;47.182;27.506;2023-11-22T04:25:40;100014.88;;;2.51;100.00
47738;BME280;33502;47.182;27.506;2023-11-22T04:28:07;100013.91;;;2.57;100.00
47738;BME280;33502;47.182;27.506;2023-11-22T04:30:34;100018.22;;;2.58;100.00
47738;BME280;33502;47.182;27.506;2023-11-22T04:32:59;100025.25;;;2.55;100.00
47738;BME280;33502;47.182;27.506;2023-11-22T04:35:25;100034.91;;;2.50;100.00
47738;BME280;33502;47.182;27.506;2023-11-22T04:37:51;100038.47;;;2.45;100.00
47738;BME280;33502;47.182;27.506;2023-11-22T04:40:16;100035.88;;;2.45;100.00
47738;BME280;33502;47.182;27.506;2023-11-22T04:42:43;100038.44;;;2.46;100.00
47738;BME280;33502;47.182;27.506;2023-11-22T04:45:09;100048.84;;;2.51;100.00
47738;BME280;33502;47.182;27.506;2023-11-22T04:47:35;100054.81;;;2.58;100.00
47738;BME280;33502;47.182;27.506;2023-11-22T04:50:01;100055.66;;;2.61;100.00
47738;BME280;33502;47.182;27.506;2023-11-22T04:52:26;100057.41;;;2.62;100.00
47738;BME280;33502;47.182;27.506;2023-11-22T04:54:52;100063.50;;;2.60;100.00
47738;BME280;33502;47.182;27.506;2023-11-22T04:57:18;100074.03;;;2.57;100.00
47738;BME280;33502;47.182;27.506;2023-11-22T04:59:43;100074.03;;;2.57;100.00
47738;BME280;33502;47.182;27.506;2023-11-22T05:02:09;100086.16;;;2.62;100.00
47738;BME280;33502;47.182;27.506;2023-11-22T05:04:36;100087.94;;;2.60;100.00
47738;BME280;33502;47.182;27.506;2023-11-22T05:07:01;100091.41;;;2.61;100.00
47738;BME280;33502;47.182;27.506;2023-11-22T05:09:28;100097.47;;;2.61;100.00
47738;BME280;33502;47.182;27.506;2023-11-22T05:11:54;100098.34;;;2.62;100.00
47738;BME280;33502;47.182;27.506;2023-11-22T05:14:19;100098.31;;;2.65;100.00
47738;BME280;33502;47.182;27.506;2023-11-22T05:16:45;100101.72;;;2.70;100.00
47738;BME280;33502;47.182;27.506;2023-11-22T05:19:11;100101.66;;;2.73;100.00
47738;BME280;33502;47.182;27.506;2023-11-22T05:21:36;100108.63;;;2.76;100.00
47738;BME280;33502;47.182;27.506;2023-11-22T05:24:02;100111.19;;;2.79;100.00
47738;BME280;33502;47.182;27.506;2023-11-22T05:26:27;100118.13;;;2.81;100.00
47738;BME280;33502;47.182;27.506;2023-11-22T05:28:53;100118.06;;;2.84;100.00
47738;BME280;33502;47.182;27.506;2023-11-22T05:31:19;100119.75;;;2.88;100.00
47738;BME280;33502;47.182;27.506;2023-11-22T05:33:45;100133.69;;;2.90;100.00
47738;BME280;33502;47.182;27.506;2023-11-22T05:36:11;100131.00;;;2.93;100.00
47738;BME280;33502;47.182;27.506;2023-11-22T05:38:37;100133.59;;;2.97;100.00
47738;BME280;33502;47.182;27.506;2023-11-22T05:41:03;100134.44;;;2.99;100.00
47738;BME280;33502;47.182;27.506;2023-11-22T05:43:29;100141.31;;;3.06;100.00
47738;BME280;33502;47.182;27.506;2023-11-22T05:45:54;100140.41;;;3.07;100.00
47738;BME280;33502;47.182;27.506;2023-11-22T05:48:20;100148.25;;;3.08;100.00
47738;BME280;33502;47.182;27.506;2023-11-22T05:50:46;100148.22;;;3.11;100.00
47738;BME280;33502;47.182;27.506;2023-11-22T05:53:12;100154.31;;;3.12;100.00
47738;BME280;33502;47.182;27.506;2023-11-22T05:55:37;100156.84;;;3.15;100.00
47738;BME280;33502;47.182;27.506;2023-11-22T05:58:03;100158.59;;;3.16;100.00
47738;BME280;33502;47.182;27.506;2023-11-22T06:00:29;100165.53;;;3.17;100.00
47738;BME280;33502;47.182;27.506;2023-11-22T06:02:54;100162.91;;;3.19;100.00
47738;BME280;33502;47.182;27.506;2023-11-22T06:05:21;100175.06;;;3.23;100.00
47738;BME280;33502;47.182;27.506;2023-11-22T06:07:46;100171.53;;;3.25;100.00
47738;BME280;33502;47.182;27.506;2023-11-22T06:10:13;100172.38;;;3.29;100.00
47738;BME280;33502;47.182;27.506;2023-11-22T06:12:39;100180.16;;;3.30;100.00
47738;BME280;33502;47.182;27.506;2023-11-22T06:15:05;100176.66;;;3.33;100.00
47738;BME280;33502;47.182;27.506;2023-11-22T06:17:31;100180.97;;;3.36;100.00
47738;BME280;33502;47.182;27.506;2023-11-22T06:19:57;100189.63;;;3.41;100.00
47738;BME280;33502;47.182;27.506;2023-11-22T06:22:22;100183.50;;;3.42;100.00
47738;BME280;33502;47.182;27.506;2023-11-22T06:24:48;100185.19;;;3.46;100.00
47738;BME280;33502;47.182;27.506;2023-11-22T06:27:14;100187.75;;;3.49;100.00
47738;BME280;33502;47.182;27.506;2023-11-22T06:29:40;100193.81;;;3.51;100.00
47738;BME280;33502;47.182;27.506;2023-11-22T06:32:08;100204.25;;;3.54;100.00
47738;BME280;33502;47.182;27.506;2023-11-22T06:34:34;100212.97;;;3.55;100.00
47738;BME280;33502;47.182;27.506;2023-11-22T06:37:02;100218.19;;;3.56;100.00
47738;BME280;33502;47.182;27.506;2023-11-22T06:39:27;100222.50;;;3.57;100.00
47738;BME280;33502;47.182;27.506;2023-11-22T06:41:53;100214.63;;;3.59;100.00
47738;BME280;33502;47.182;27.506;2023-11-22T06:44:18;100211.97;;;3.63;100.00
47738;BME280;33502;47.182;27.506;2023-11-22T06:46:44;100217.13;;;3.68;100.00
47738;BME280;33502;47.182;27.506;2023-11-22T06:49:10;100221.38;;;3.73;100.00
47738;BME280;33502;47.182;27.506;2023-11-22T06:51:35;100222.19;;;3.79;100.00
47738;BME280;33502;47.182;27.506;2023-11-22T06:54:02;100225.66;;;3.81;100.00
47738;BME280;33502;47.182;27.506;2023-11-22T06:56:28;100233.44;;;3.84;100.00
47738;BME280;33502;47.182;27.506;2023-11-22T06:58:54;100240.38;;;3.88;100.00
47738;BME280;33502;47.182;27.506;2023-11-22T07:01:23;100234.22;;;3.90;100.00
47738;BME280;33502;47.182;27.506;2023-11-22T07:03:51;100228.97;;;3.92;100.00
47738;BME280;33502;47.182;27.506;2023-11-22T07:06:17;100233.28;;;3.93;100.00
47738;BME280;33502;47.182;27.506;2023-11-22T07:08:46;100241.13;;;3.95;100.00
47738;BME280;33502;47.182;27.506;2023-11-22T07:11:12;100235.88;;;3.95;100.00
47738;BME280;33502;47.182;27.506;2023-11-22T07:13:39;100236.75;;;3.95;100.00
47738;BME280;33502;47.182;27.506;2023-11-22T07:16:05;100243.72;;;3.96;100.00
47738;BME280;33502;47.182;27.506;2023-11-22T07:18:32;100249.81;;;3.98;100.00
47738;BME280;33502;47.182;27.506;2023-11-22T07:20:59;100256.75;;;3.99;100.00
47738;BME280;33502;47.182;27.506;2023-11-22T07:23:25;100255.88;;;4.00;100.00
47738;BME280;33502;47.182;27.506;2023-11-22T07:25:54;100261.97;;;4.01;100.00
47738;BME280;33502;47.182;27.506;2023-11-22T07:28:20;100263.72;;;4.02;100.00
47738;BME280;33502;47.182;27.506;2023-11-22T07:30:46;100265.44;;;4.03;100.00
47738;BME280;33502;47.182;27.506;2023-11-22T07:33:14;100278.50;;;4.04;100.00
47738;BME280;33502;47.182;27.506;2023-11-22T07:35:40;100277.66;;;4.04;100.00
47738;BME280;33502;47.182;27.506;2023-11-22T07:38:06;100281.13;;;4.06;100.00
47738;BME280;33502;47.182;27.506;2023-11-22T07:40:34;100285.44;;;4.07;100.00
47738;BME280;33502;47.182;27.506;2023-11-22T07:43:00;100293.25;;;4.11;100.00
47738;BME280;33502;47.182;27.506;2023-11-22T07:45:27;100287.09;;;4.14;100.00
47738;BME280;33502;47.182;27.506;2023-11-22T07:47:53;100292.31;;;4.16;100.00
47738;BME280;33502;47.182;27.506;2023-11-22T07:50:21;100296.63;;;4.18;100.00
47738;BME280;33502;47.182;27.506;2023-11-22T07:52:49;100297.50;;;4.19;100.00
47738;BME280;33502;47.182;27.506;2023-11-22T07:55:16;100303.59;;;4.21;100.00
47738;BME280;33502;47.182;27.506;2023-11-22T07:57:43;100306.19;;;4.21;100.00
47738;BME280;33502;47.182;27.506;2023-11-22T08:00:09;100311.44;;;4.21;100.00
47738;BME280;33502;47.182;27.506;2023-11-22T08:02:39;100311.44;;;4.22;100.00
47738;BME280;33502;47.182;27.506;2023-11-22T08:05:05;100309.66;;;4.23;100.00
47738;BME280;33502;47.182;27.506;2023-11-22T08:07:36;100318.41;;;4.22;100.00
47738;BME280;33502;47.182;27.506;2023-11-22T08:10:09;100314.09;;;4.18;100.00
47738;BME280;33502;47.182;27.506;2023-11-22T08:12:35;100315.06;;;4.14;100.00
47738;BME280;33502;47.182;27.506;2023-11-22T08:15:02;100330.00;;;4.07;100.00
47738;BME280;33502;47.182;27.506;2023-11-22T08:17:29;100324.88;;;3.99;100.00
47738;BME280;33502;47.182;27.506;2023-11-22T08:19:54;100319.75;;;3.93;100.00
47738;BME280;33502;47.182;27.506;2023-11-22T08:22:21;100314.59;;;3.88;100.00
47738;BME280;33502;47.182;27.506;2023-11-22T08:24:46;100328.63;;;3.83;100.00
47738;BME280;33502;47.182;27.506;2023-11-22T08:27:13;100336.53;;;3.80;100.00
47738;BME280;33502;47.182;27.506;2023-11-22T08:29:40;100338.31;;;3.76;100.00
47738;BME280;33502;47.182;27.506;2023-11-22T08:32:06;100342.78;;;3.71;100.00
47738;BME280;33502;47.182;27.506;2023-11-22T08:34:32;100346.38;;;3.64;100.00
47738;BME280;33502;47.182;27.506;2023-11-22T08:36:57;100343.78;;;3.59;100.00
47738;BME280;33502;47.182;27.506;2023-11-22T08:39:24;100343.00;;;3.56;100.00
47738;BME280;33502;47.182;27.506;2023-11-22T08:41:50;100350.88;;;3.54;100.00
47738;BME280;33502;47.182;27.506;2023-11-22T08:44:15;100349.19;;;3.50;100.00
47738;BME280;33502;47.182;27.506;2023-11-22T08:46:41;100348.28;;;3.49;100.00
47738;BME280;33502;47.182;27.506;2023-11-22T08:49:07;100346.59;;;3.47;100.00
47738;BME280;33502;47.182;27.506;2023-11-22T08:51:32;100349.25;;;3.44;100.00
47738;BME280;33502;47.182;27.506;2023-11-22T08:53:59;100342.31;;;3.40;100.00
47738;BME280;33502;47.182;27.506;2023-11-22T08:56:25;100342.34;;;3.38;100.00
47738;BME280;33502;47.182;27.506;2023-11-22T08:58:51;100339.78;;;3.35;100.00
47738;BME280;33502;47.182;27.506;2023-11-22T09:01:16;100347.66;;;3.30;100.00
47738;BME280;33502;47.182;27.506;2023-11-22T09:03:43;100355.59;;;3.26;100.00
47738;BME280;33502;47.182;27.506;2023-11-22T09:06:09;100352.13;;;3.24;100.00
47738;BME280;33502;47.182;27.506;2023-11-22T09:08:35;100355.59;;;3.24;100.00
47738;BME280;33502;47.182;27.506;2023-11-22T09:11:01;100362.63;;;3.21;100.00
47738;BME280;33502;47.182;27.506;2023-11-22T09:13:31;100357.44;;;3.19;100.00
47738;BME280;33502;47.182;27.506;2023-11-22T09:15:56;100358.28;;;3.18;100.00
47738;BME280;33502;47.182;27.506;2023-11-22T09:18:22;100370.53;;;3.16;100.00
47738;BME280;33502;47.182;27.506;2023-11-22T09:20:48;100368.75;;;3.18;100.00
47738;BME280;33502;47.182;27.506;2023-11-22T09:23:13;100377.47;;;3.17;100.00
47738;BME280;33502;47.182;27.506;2023-11-22T09:25:40;100381.00;;;3.16;100.00
47738;BME280;33502;47.182;27.506;2023-11-22T09:28:06;100381.00;;;3.16;100.00
47738;BME280;33502;47.182;27.506;2023-11-22T09:30:32;100379.25;;;3.15;100.00
47738;BME280;33502;47.182;27.506;2023-11-22T09:33:01;100388.88;;;3.14;100.00
47738;BME280;33502;47.182;27.506;2023-11-22T09:35:27;100383.63;;;3.16;100.00
47738;BME280;33502;47.182;27.506;2023-11-22T09:37:55;100378.41;;;3.14;100.00
47738;BME280;33502;47.182;27.506;2023-11-22T09:40:21;100389.72;;;3.17;100.00
47738;BME280;33502;47.182;27.506;2023-11-22T09:42:48;100390.53;;;3.20;100.00
47738;BME280;33502;47.182;27.506;2023-11-22T09:45:17;100394.91;;;3.21;100.00
47738;BME280;33502;47.182;27.506;2023-11-22T09:47:43;100391.38;;;3.22;100.00
47738;BME280;33502;47.182;27.506;2023-11-22T09:50:10;100397.47;;;3.23;100.00
47738;BME280;33502;47.182;27.506;2023-11-22T09:52:39;100393.13;;;3.23;100.00
47738;BME280;33502;47.182;27.506;2023-11-22T09:55:07;100407.09;;;3.22;100.00
47738;BME280;33502;47.182;27.506;2023-11-22T09:57:33;100409.69;;;3.25;100.00
47738;BME280;33502;47.182;27.506;2023-11-22T10:00:01;100414.91;;;3.25;100.00
47738;BME280;33502;47.182;27.506;2023-11-22T10:02:26;100421.88;;;3.26;100.00
47738;BME280;33502;47.182;27.506;2023-11-22T10:04:54;100415.75;;;3.27;100.00
47738;BME280;33502;47.182;27.506;2023-11-22T10:07:20;100408.75;;;3.29;100.00
47738;BME280;33502;47.182;27.506;2023-11-22T10:09:48;100421.84;;;3.31;100.00
47738;BME280;33502;47.182;27.506;2023-11-22T10:12:18;100428.78;;;3.33;100.00
47738;BME280;33502;47.182;27.506;2023-11-22T10:14:46;100430.47;;;3.38;100.00
47738;BME280;33502;47.182;27.506;2023-11-22T10:17:12;100433.06;;;3.41;100.00
47738;BME280;33502;47.182;27.506;2023-11-22T10:19:40;100441.75;;;3.43;100.00
47738;BME280;33502;47.182;27.506;2023-11-22T10:22:07;100442.59;;;3.45;100.00
47738;BME280;33502;47.182;27.506;2023-11-22T10:24:33;100460.94;;;3.46;100.00
47738;BME280;33502;47.182;27.506;2023-11-22T10:26:59;100456.53;;;3.48;100.00
47738;BME280;33502;47.182;27.506;2023-11-22T10:29:25;100459.16;;;3.48;100.00
47738;BME280;33502;47.182;27.506;2023-11-22T10:31:51;100464.38;;;3.50;100.00
47738;BME280;33502;47.182;27.506;2023-11-22T10:34:23;100466.09;;;3.52;100.00
47738;BME280;33502;47.182;27.506;2023-11-22T10:36:49;100465.16;;;3.55;100.00
47738;BME280;33502;47.182;27.506;2023-11-22T10:39:18;100473.00;;;3.60;100.00
47738;BME280;33502;47.182;27.506;2023-11-22T10:41:45;100482.53;;;3.64;100.00
47738;BME280;33502;47.182;27.506;2023-11-22T10:44:10;100470.28;;;3.66;100.00
47738;BME280;33502;47.182;27.506;2023-11-22T10:46:36;100472.03;;;3.67;100.00
47738;BME280;33502;47.182;27.506;2023-11-22T10:49:04;100478.06;;;3.70;100.00
47738;BME280;33502;47.182;27.506;2023-11-22T10:51:30;100474.59;;;3.70;100.00
47738;BME280;33502;47.182;27.506;2023-11-22T10:53:57;100465.81;;;3.72;100.00
47738;BME280;33502;47.182;27.506;2023-11-22T10:56:23;100483.28;;;3.75;100.00
47738;BME280;33502;47.182;27.506;2023-11-22T10:58:51;100485.88;;;3.77;100.00
47738;BME280;33502;47.182;27.506;2023-11-22T11:01:17;100470.13;;;3.78;100.00
47738;BME280;33502;47.182;27.506;2023-11-22T11:04:02;100498.94;;;3.80;100.00
47738;BME280;33502;47.182;27.506;2023-11-22T11:06:32;100497.13;;;3.85;100.00
47738;BME280;33502;47.182;27.506;2023-11-22T11:09:00;100497.13;;;3.86;100.00
47738;BME280;33502;47.182;27.506;2023-11-22T11:11:27;100489.25;;;3.88;100.00
47738;BME280;33502;47.182;27.506;2023-11-22T11:13:53;100496.16;;;3.92;100.00
47738;BME280;33502;47.182;27.506;2023-11-22T11:16:19;100483.03;;;3.93;100.00
47738;BME280;33502;47.182;27.506;2023-11-22T11:18:45;100488.22;;;3.98;100.00
47738;BME280;33502;47.182;27.506;2023-11-22T11:21:12;100488.19;;;4.01;100.00
47738;BME280;33502;47.182;27.506;2023-11-22T11:23:38;100480.34;;;4.01;100.00
47738;BME280;33502;47.182;27.506;2023-11-22T11:26:09;100498.69;;;4.01;100.00
47738;BME280;33502;47.182;27.506;2023-11-22T11:28:44;100495.19;;;3.99;100.00
47738;BME280;33502;47.182;27.506;2023-11-22T11:31:11;100500.41;;;4.01;100.00
47738;BME280;33502;47.182;27.506;2023-11-22T11:38:48;100506.38;;;4.14;100.00
47738;BME280;33502;47.182;27.506;2023-11-22T11:41:15;100509.81;;;4.17;100.00
47738;BME280;33502;47.182;27.506;2023-11-22T11:46:07;100515.94;;;4.15;100.00
47738;BME280;33502;47.182;27.506;2023-11-22T11:48:33;100524.69;;;4.15;100.00
47738;BME280;33502;47.182;27.506;2023-11-22T11:50:59;100519.44;;;4.17;100.00
47738;BME280;33502;47.182;27.506;2023-11-22T11:53:24;100520.31;;;4.14;100.00
47738;BME280;33502;47.182;27.506;2023-11-22T11:55:50;100523.88;;;4.10;100.00
47738;BME280;33502;47.182;27.506;2023-11-22T11:58:18;100516.03;;;4.07;100.00
47738;BME280;33502;47.182;27.506;2023-11-22T12:00:43;100518.72;;;4.04;100.00
47738;BME280;33502;47.182;27.506;2023-11-22T12:03:10;100521.34;;;4.05;100.00
47738;BME280;33502;47.182;27.506;2023-11-22T12:05:36;100524.78;;;4.07;100.00
47738;BME280;33502;47.182;27.506;2023-11-22T12:08:01;100521.25;;;4.10;100.00
47738;BME280;33502;47.182;27.506;2023-11-22T12:10:28;100523.03;;;4.08;100.00
47738;BME280;33502;47.182;27.506;2023-11-22T12:12:54;100531.75;;;4.08;100.00
47738;BME280;33502;47.182;27.506;2023-11-22T12:15:19;100545.84;;;4.01;100.00
47738;BME280;33502;47.182;27.506;2023-11-22T12:17:47;100541.50;;;3.99;100.00
47738;BME280;33502;47.182;27.506;2023-11-22T12:20:14;100547.66;;;3.93;100.00
47738;BME280;33502;47.182;27.506;2023-11-22T12:22:41;100563.47;;;3.87;100.00
47738;BME280;33502;47.182;27.506;2023-11-22T12:25:07;100559.19;;;3.78;100.00
47738;BME280;33502;47.182;27.506;2023-11-22T12:27:33;100571.50;;;3.71;100.00
47738;BME280;33502;47.182;27.506;2023-11-22T12:29:58;100562.81;;;3.65;100.00
47738;BME280;33502;47.182;27.506;2023-11-22T12:32:24;100581.22;;;3.57;100.00
47738;BME280;33502;47.182;27.506;2023-11-22T12:34:51;100573.44;;;3.49;100.00
47738;BME280;33502;47.182;27.506;2023-11-22T12:37:21;100580.50;;;3.41;100.00
47738;BME280;33502;47.182;27.506;2023-11-22T12:39:50;100590.19;;;3.33;100.00
47738;BME280;33502;47.182;27.506;2023-11-22T12:42:18;100599.81;;;3.29;100.00
47738;BME280;33502;47.182;27.506;2023-11-22T12:44:47;100602.47;;;3.25;100.00